Wetterdaten: Woche 17.11.03 - 23.11.03 (KW47)
Datum Zeit Temperatur Luftfeuchte Luftdruck Regenmenge Wind Richtung Taupunkt Windchill
17.11.2003 00:00 7.6 C 98 % 1016.1 hPa 0.4 l/m 25.1 km/h (4 Bft) NW 7.3 C 4.8 C
17.11.2003 01:00 7.0 C 90 % 1017.7 hPa 0.4 l/m 30.1 km/h (5 Bft) NW 5.6 C 2.9 C
17.11.2003 02:00 5.8 C 89 % 1019.6 hPa 0.0 l/m 16.0 km/h (3 Bft) NW 4.1 C 2.8 C
17.11.2003 03:00 5.1 C 84 % 1021.3 hPa 0.0 l/m 20.5 km/h (4 Bft) W-NW 2.7 C 1.2 C
17.11.2003 04:00 5.1 C 84 % 1022.6 hPa 0.0 l/m 15.3 km/h (3 Bft) W-NW 2.5 C 1.9 C
17.11.2003 05:00 5.0 C 84 % 1023.9 hPa 0.0 l/m 12.0 km/h (2 Bft) W-NW 2.6 C 2.5 C
17.11.2003 06:00 4.8 C 85 % 1024.9 hPa 0.0 l/m 12.1 km/h (2 Bft) W-NW 2.5 C 2.1 C
17.11.2003 07:00 4.8 C 86 % 1026.2 hPa 0.0 l/m 2.0 km/h (1 Bft) O 2.6 C 4.6 C
17.11.2003 08:00 5.0 C 87 % 1026.4 hPa 0.0 l/m 3.8 km/h (1 Bft) O-SO 3.0 C 4.1 C
17.11.2003 09:00 5.5 C 83 % 1027.4 hPa 0.0 l/m 2.1 km/h (1 Bft) W-NW 2.8 C 5.1 C
17.11.2003 10:00 6.2 C 77 % 1027.4 hPa 0.0 l/m 1.0 km/h (0 Bft) W-NW 2.5 C 6.1 C
17.11.2003 11:00 6.4 C 71 % 1027.4 hPa 0.0 l/m 10.8 km/h (2 Bft) NW 1.6 C 4.4 C
17.11.2003 12:00 6.7 C 66 % 1027.4 hPa 0.0 l/m 11.6 km/h (2 Bft) W-NW 0.9 C 4.6 C
17.11.2003 13:00 6.5 C 62 % 1027.4 hPa 0.0 l/m 11.7 km/h (2 Bft) W-NW -0.2 C 4.3 C
17.11.2003 14:00 6.8 C 58 % 1027.4 hPa 0.0 l/m 15.7 km/h (3 Bft) W-NW -0.8 C 4.0 C
17.11.2003 15:00 6.9 C 60 % 1027.1 hPa 0.0 l/m 5.4 km/h (1 Bft) NW -0.3 C 5.9 C
17.11.2003 16:00 5.7 C 66 % 1027.7 hPa 0.0 l/m 3.3 km/h (1 Bft) W-NW -0.2 C 5.2 C
17.11.2003 17:00 3.9 C 76 % 1028.5 hPa 0.0 l/m 3.4 km/h (1 Bft) O-SO -0.0 C 3.2 C
17.11.2003 18:00 3.1 C 84 % 1028.5 hPa 0.0 l/m 4.2 km/h (1 Bft) O 0.8 C 2.3 C
17.11.2003 19:00 2.7 C 87 % 1028.5 hPa 0.0 l/m 3.0 km/h (1 Bft) O 0.7 C 2.1 C
17.11.2003 20:00 1.9 C 89 % 1028.5 hPa 0.0 l/m 2.9 km/h (1 Bft) O 0.2 C 1.2 C
17.11.2003 21:00 1.3 C 91 % 1028.5 hPa 0.0 l/m 1.0 km/h (0 Bft) O -0.0 C 1.2 C
17.11.2003 22:00 1.4 C 93 % 1028.9 hPa 0.0 l/m 1.0 km/h (0 Bft) O 0.3 C 1.2 C
17.11.2003 23:00 1.0 C 93 % 1029.5 hPa 0.0 l/m 1.8 km/h (1 Bft) O 0.1 C 0.5 C
18.11.2003 00:00 0.6 C 93 % 1029.5 hPa 0.0 l/m 0.4 km/h (0 Bft) O -0.4 C 0.5 C
18.11.2003 01:00 0.9 C 93 % 1029.5 hPa 0.0 l/m 0.2 km/h (0 Bft) O -0.1 C 0.9 C
18.11.2003 02:00 1.7 C 100 % 1029.5 hPa 0.0 l/m 0.4 km/h (0 Bft) O 1.7 C 1.7 C
18.11.2003 03:00 2.2 C 100 % 1029.5 hPa 0.0 l/m 3.1 km/h (1 Bft) O-SO 2.2 C 1.6 C
18.11.2003 04:00 2.7 C 100 % 1029.5 hPa 0.4 l/m 8.0 km/h (2 Bft) SO 2.7 C 0.7 C
18.11.2003 05:00 2.9 C 100 % 1029.8 hPa 0.0 l/m 2.1 km/h (1 Bft) SO 2.8 C 2.4 C
18.11.2003 06:00 3.2 C 97 % 1029.8 hPa 0.0 l/m 4.9 km/h (1 Bft) SO 2.7 C 1.9 C
18.11.2003 07:00 3.5 C 95 % 1030.5 hPa 0.0 l/m 2.3 km/h (1 Bft) SO 2.8 C 3.1 C
18.11.2003 08:00 4.1 C 90 % 1030.5 hPa 0.0 l/m 3.9 km/h (1 Bft) SO 2.6 C 3.3 C
18.11.2003 09:00 4.9 C 86 % 1030.5 hPa 0.0 l/m 2.3 km/h (1 Bft) O-SO 2.7 C 4.5 C
18.11.2003 10:00 6.3 C 80 % 1030.5 hPa 0.0 l/m 8.6 km/h (2 Bft) SO 3.0 C 4.7 C
18.11.2003 11:00 7.2 C 73 % 1030.5 hPa 0.0 l/m 11.5 km/h (2 Bft) SO 2.7 C 5.2 C
18.11.2003 12:00 8.2 C 67 % 1030.5 hPa 0.0 l/m 8.6 km/h (2 Bft) SO 2.4 C 7.0 C
18.11.2003 13:00 9.2 C 61 % 1030.5 hPa 0.0 l/m 9.0 km/h (2 Bft) SO 2.1 C 7.9 C
18.11.2003 14:00 9.1 C 61 % 1030.2 hPa 0.0 l/m 3.0 km/h (1 Bft) O-SO 2.0 C 8.8 C
18.11.2003 15:00 9.0 C 62 % 1029.5 hPa 0.0 l/m 3.0 km/h (1 Bft) SO 2.0 C 8.7 C
18.11.2003 16:00 8.6 C 66 % 1029.5 hPa 0.0 l/m 1.1 km/h (0 Bft) SO 2.6 C 8.5 C
18.11.2003 17:00 7.7 C 74 % 1029.5 hPa 0.0 l/m 3.8 km/h (1 Bft) SO 3.4 C 7.1 C
18.11.2003 18:00 7.1 C 79 % 1029.5 hPa 0.0 l/m 3.4 km/h (1 Bft) O-SO 3.6 C 6.5 C
18.11.2003 19:00 6.4 C 81 % 1029.6 hPa 0.0 l/m 3.2 km/h (1 Bft) O-SO 3.5 C 5.8 C
18.11.2003 20:00 5.3 C 85 % 1029.6 hPa 0.0 l/m 4.0 km/h (1 Bft) O-SO 2.9 C 4.5 C
18.11.2003 21:00 5.3 C 87 % 1029.5 hPa 0.0 l/m 3.8 km/h (1 Bft) O-SO 3.3 C 4.5 C
18.11.2003 22:00 5.0 C 86 % 1029.5 hPa 0.0 l/m 9.6 km/h (2 Bft) O-SO 2.9 C 2.7 C
18.11.2003 23:00 4.2 C 89 % 1029.5 hPa 0.0 l/m 5.3 km/h (1 Bft) O-SO 2.6 C 3.2 C
19.11.2003 00:00 3.4 C 91 % 1029.5 hPa 0.0 l/m 3.6 km/h (1 Bft) O-SO 2.1 C 2.6 C
19.11.2003 01:00 2.6 C 93 % 1029.5 hPa 0.0 l/m 0.9 km/h (0 Bft) O-SO 1.5 C 2.4 C
19.11.2003 02:00 2.3 C 97 % 1029.5 hPa 0.0 l/m 1.0 km/h (0 Bft) O-SO 1.9 C 2.2 C
19.11.2003 03:00 3.4 C 100 % 1028.9 hPa 0.0 l/m 4.9 km/h (1 Bft) SO 3.4 C 2.1 C
19.11.2003 04:00 4.3 C 98 % 1028.5 hPa 0.0 l/m 4.3 km/h (1 Bft) SO 4.0 C 3.4 C
19.11.2003 05:00 3.8 C 98 % 1028.5 hPa 0.0 l/m 0.1 km/h (0 Bft) SO 3.5 C 3.8 C
19.11.2003 06:00 3.3 C 96 % 1028.5 hPa 0.0 l/m 4.1 km/h (1 Bft) SO 2.7 C 2.7 C
19.11.2003 07:00 3.2 C 96 % 1028.5 hPa 0.0 l/m 6.9 km/h (2 Bft) SO 2.6 C 1.5 C
19.11.2003 08:00 3.6 C 98 % 1028.5 hPa 0.0 l/m 10.4 km/h (2 Bft) SO 3.4 C 1.1 C
19.11.2003 09:00 4.1 C 96 % 1028.5 hPa 0.0 l/m 11.2 km/h (2 Bft) SO 3.6 C 1.5 C
19.11.2003 10:00 5.1 C 89 % 1028.5 hPa 0.0 l/m 12.6 km/h (3 Bft) SO 3.4 C 2.4 C
19.11.2003 11:00 6.2 C 85 % 1028.5 hPa 0.0 l/m 3.2 km/h (1 Bft) O-SO 3.9 C 5.7 C
19.11.2003 12:00 7.2 C 83 % 1027.9 hPa 0.0 l/m 2.8 km/h (1 Bft) SO 4.5 C 6.8 C
19.11.2003 13:00 8.0 C 80 % 1027.4 hPa 0.0 l/m 0.5 km/h (0 Bft) SO 4.8 C 8.0 C
19.11.2003 14:00 8.1 C 80 % 1026.6 hPa 0.0 l/m 0.1 km/h (0 Bft) N 4.9 C 8.1 C
19.11.2003 15:00 7.9 C 84 % 1026.4 hPa 0.0 l/m 0.8 km/h (0 Bft) N-NW 5.3 C 7.8 C
19.11.2003 16:00 7.4 C 87 % 1026.4 hPa 0.0 l/m 0.3 km/h (0 Bft) N-NW 5.4 C 7.4 C
19.11.2003 17:00 6.9 C 92 % 1026.4 hPa 0.0 l/m 0.2 km/h (0 Bft) N 5.6 C 6.9 C
19.11.2003 18:00 6.5 C 94 % 1026.4 hPa 0.0 l/m 4.7 km/h (1 Bft) W-NW 5.6 C 5.5 C
19.11.2003 19:00 6.2 C 96 % 1026.4 hPa 0.0 l/m 3.5 km/h (1 Bft) W-NW 5.6 C 5.5 C
19.11.2003 20:00 5.8 C 99 % 1025.7 hPa 0.0 l/m 3.3 km/h (1 Bft) NW 5.6 C 5.2 C
19.11.2003 21:00 5.7 C 100 % 1025.3 hPa 0.0 l/m 0.3 km/h (0 Bft) W-NW 5.7 C 5.7 C
19.11.2003 22:00 5.6 C 100 % 1025.3 hPa 0.0 l/m 0.0 km/h (0 Bft) N 5.6 C 5.6 C
19.11.2003 23:00 5.4 C 100 % 1025.3 hPa 0.0 l/m 1.3 km/h (1 Bft) W-NW 5.4 C 5.3 C
20.11.2003 00:00 4.9 C 100 % 1025.3 hPa 0.0 l/m 6.6 km/h (2 Bft) O-SO 4.9 C 3.5 C
20.11.2003 01:00 4.5 C 100 % 1025.3 hPa 0.0 l/m 9.9 km/h (2 Bft) O-SO 4.5 C 2.2 C
20.11.2003 02:00 4.3 C 100 % 1025.2 hPa 0.0 l/m 8.4 km/h (2 Bft) O-SO 4.3 C 2.3 C
20.11.2003 03:00 4.2 C 100 % 1024.3 hPa 0.0 l/m 3.8 km/h (1 Bft) O-SO 4.2 C 3.3 C
20.11.2003 04:00 4.1 C 100 % 1024.3 hPa 0.0 l/m 1.1 km/h (1 Bft) O-SO 4.1 C 4.0 C
20.11.2003 05:00 4.0 C 100 % 1023.5 hPa 0.0 l/m 0.1 km/h (0 Bft) N 4.0 C 4.0 C
20.11.2003 06:00 3.9 C 100 % 1023.3 hPa 0.0 l/m 0.0 km/h (0 Bft) O-SO 3.9 C 3.9 C
20.11.2003 07:00 3.9 C 100 % 1023.3 hPa 0.0 l/m 1.0 km/h (0 Bft) O-SO 3.9 C 3.8 C
20.11.2003 08:00 4.0 C 100 % 1023.3 hPa 0.0 l/m 3.5 km/h (1 Bft) O-SO 4.0 C 3.3 C
20.11.2003 09:00 4.3 C 98 % 1023.3 hPa 0.0 l/m 0.1 km/h (0 Bft) O-SO 4.0 C 4.3 C
20.11.2003 10:00 4.4 C 93 % 1023.3 hPa 0.0 l/m 0.2 km/h (0 Bft) N 3.4 C 4.4 C
20.11.2003 11:00 4.9 C 89 % 1022.9 hPa 0.0 l/m 0.1 km/h (0 Bft) N 3.3 C 4.9 C
20.11.2003 12:00 5.6 C 85 % 1022.0 hPa 0.0 l/m 0.7 km/h (0 Bft) SO 3.3 C 5.5 C
20.11.2003 13:00 6.5 C 81 % 1021.2 hPa 0.0 l/m 0.7 km/h (0 Bft) W 3.4 C 6.4 C
20.11.2003 14:00 7.2 C 77 % 1020.4 hPa 0.0 l/m 1.2 km/h (1 Bft) W 3.4 C 7.1 C
20.11.2003 15:00 7.1 C 78 % 1020.1 hPa 0.0 l/m 0.8 km/h (0 Bft) W 3.6 C 7.0 C
20.11.2003 16:00 5.9 C 83 % 1020.1 hPa 0.0 l/m 2.0 km/h (1 Bft) SO 3.3 C 5.6 C
20.11.2003 17:00 4.7 C 90 % 1020.1 hPa 0.0 l/m 3.0 km/h (1 Bft) SO 3.2 C 4.1 C
20.11.2003 18:00 4.0 C 97 % 1020.1 hPa 0.0 l/m 4.5 km/h (1 Bft) SO 3.5 C 3.3 C
20.11.2003 19:00 3.8 C 100 % 1020.1 hPa 0.0 l/m 0.0 km/h (0 Bft) N 3.8 C 3.8 C
20.11.2003 20:00 3.9 C 100 % 1020.1 hPa 0.0 l/m 0.9 km/h (0 Bft) SO 3.9 C 3.8 C
20.11.2003 21:00 3.7 C 100 % 1020.1 hPa 0.0 l/m 0.2 km/h (0 Bft) SO 3.7 C 3.7 C
20.11.2003 22:00 3.3 C 100 % 1020.1 hPa 0.0 l/m 2.5 km/h (1 Bft) SO 3.3 C 2.8 C
20.11.2003 23:00 3.1 C 100 % 1020.1 hPa 0.0 l/m 2.2 km/h (1 Bft) SO 3.1 C 2.7 C
21.11.2003 00:00 3.0 C 100 % 1020.1 hPa 0.0 l/m 3.7 km/h (1 Bft) O-SO 3.0 C 2.2 C
21.11.2003 01:00 2.8 C 100 % 1019.9 hPa 0.0 l/m 3.3 km/h (1 Bft) O-SO 2.8 C 2.1 C
21.11.2003 02:00 2.8 C 100 % 1019.1 hPa 0.0 l/m 4.6 km/h (1 Bft) O-SO 2.8 C 1.8 C
21.11.2003 03:00 2.5 C 100 % 1019.1 hPa 0.0 l/m 3.5 km/h (1 Bft) O-SO 2.5 C 1.7 C
21.11.2003 04:00 2.2 C 100 % 1018.3 hPa 0.0 l/m 1.9 km/h (1 Bft) O-SO 2.2 C 2.0 C
21.11.2003 05:00 2.0 C 100 % 1018.1 hPa 0.0 l/m 0.5 km/h (0 Bft) O 2.0 C 1.9 C
21.11.2003 06:00 1.6 C 100 % 1018.1 hPa 0.0 l/m 2.6 km/h (1 Bft) O-SO 1.6 C 0.9 C
21.11.2003 07:00 1.3 C 100 % 1018.1 hPa 0.0 l/m 4.5 km/h (1 Bft) O-SO 1.3 C 0.2 C
21.11.2003 08:00 1.3 C 100 % 1018.1 hPa 0.0 l/m 5.4 km/h (1 Bft) O-SO 1.3 C -0.2 C
21.11.2003 09:00 1.8 C 100 % 1018.1 hPa 0.0 l/m 4.4 km/h (1 Bft) O-SO 1.8 C 0.7 C
21.11.2003 10:00 2.5 C 100 % 1018.1 hPa 0.0 l/m 1.3 km/h (1 Bft) O-SO 2.5 C 2.3 C
21.11.2003 11:00 3.3 C 100 % 1017.2 hPa 0.0 l/m 0.1 km/h (0 Bft) N 3.3 C 3.3 C
21.11.2003 12:00 3.8 C 95 % 1016.3 hPa 0.0 l/m 1.0 km/h (0 Bft) O-SO 3.1 C 3.8 C
21.11.2003 13:00 5.0 C 91 % 1015.7 hPa 0.0 l/m 2.8 km/h (1 Bft) O-SO 3.5 C 4.5 C
21.11.2003 14:00 6.0 C 82 % 1014.9 hPa 0.0 l/m 3.5 km/h (1 Bft) O-SO 3.1 C 5.4 C
21.11.2003 15:00 5.8 C 82 % 1014.9 hPa 0.0 l/m 0.3 km/h (0 Bft) O-SO 2.9 C 5.7 C
21.11.2003 16:00 4.3 C 85 % 1015.1 hPa 0.0 l/m 0.6 km/h (0 Bft) O 2.1 C 4.3 C
21.11.2003 17:00 3.0 C 88 % 1015.9 hPa 0.0 l/m 0.0 km/h (0 Bft) N 1.2 C 3.0 C
21.11.2003 18:00 3.0 C 98 % 1016.0 hPa 0.0 l/m 0.0 km/h (0 Bft) N 2.7 C 3.0 C
21.11.2003 19:00 2.0 C 100 % 1016.2 hPa 0.0 l/m 0.8 km/h (0 Bft) O-SO 2.0 C 2.0 C
21.11.2003 20:00 1.5 C 99 % 1016.8 hPa 0.0 l/m 0.1 km/h (0 Bft) O-SO 1.3 C 1.5 C
21.11.2003 21:00 1.9 C 100 % 1016.5 hPa 0.0 l/m 2.4 km/h (1 Bft) O-SO 1.9 C 1.4 C
21.11.2003 22:00 1.7 C 100 % 1016.4 hPa 0.0 l/m 2.4 km/h (1 Bft) O-SO 1.7 C 1.3 C
21.11.2003 23:00 1.3 C 100 % 1016.0 hPa 0.0 l/m 3.4 km/h (1 Bft) O-SO 1.3 C 0.3 C
22.11.2003 00:00 1.4 C 100 % 1016.0 hPa 0.0 l/m 0.7 km/h (0 Bft) O-SO 1.4 C 1.3 C
22.11.2003 01:00 1.2 C 100 % 1016.0 hPa 0.0 l/m 1.1 km/h (0 Bft) O-SO 1.2 C 1.1 C
22.11.2003 02:00 1.3 C 100 % 1016.0 hPa 0.0 l/m 0.7 km/h (0 Bft) O-SO 1.3 C 1.3 C
22.11.2003 03:00 1.3 C 100 % 1016.0 hPa 0.0 l/m 1.2 km/h (1 Bft) O-SO 1.3 C 1.2 C
22.11.2003 04:00 1.2 C 100 % 1015.6 hPa 0.0 l/m 1.2 km/h (1 Bft) O-SO 1.2 C 0.9 C
22.11.2003 05:00 1.3 C 100 % 1014.9 hPa 0.0 l/m 1.8 km/h (1 Bft) O-SO 1.3 C 0.8 C
22.11.2003 06:00 1.0 C 100 % 1014.9 hPa 0.0 l/m 5.1 km/h (1 Bft) O-SO 0.9 C -0.3 C
22.11.2003 07:00 0.6 C 100 % 1014.9 hPa 0.0 l/m 5.6 km/h (1 Bft) O-SO 0.6 C -1.1 C
22.11.2003 08:00 1.0 C 100 % 1015.3 hPa 0.0 l/m 3.4 km/h (1 Bft) O-SO 1.0 C 0.1 C
22.11.2003 09:00 1.6 C 100 % 1015.0 hPa 0.0 l/m 4.8 km/h (1 Bft) O-SO 1.6 C 0.2 C
22.11.2003 10:00 2.2 C 100 % 1014.9 hPa 0.0 l/m 1.8 km/h (1 Bft) O-SO 2.2 C 2.1 C
22.11.2003 11:00 3.3 C 100 % 1014.5 hPa 0.0 l/m 0.4 km/h (0 Bft) N 3.2 C 3.2 C
22.11.2003 12:00 4.2 C 92 % 1013.5 hPa 0.0 l/m 0.1 km/h (0 Bft) N 3.0 C 4.2 C
22.11.2003 13:00 5.3 C 89 % 1012.8 hPa 0.0 l/m 0.0 km/h (0 Bft) N 3.7 C 5.3 C
22.11.2003 14:00 6.2 C 86 % 1011.8 hPa 0.0 l/m 0.0 km/h (0 Bft) N 4.1 C 6.2 C
22.11.2003 15:00 6.4 C 84 % 1011.8 hPa 0.0 l/m 0.0 km/h (0 Bft) N 3.9 C 6.4 C
22.11.2003 16:00 5.3 C 87 % 1011.8 hPa 0.0 l/m 3.2 km/h (1 Bft) O 3.2 C 4.6 C
22.11.2003 17:00 4.8 C 92 % 1011.8 hPa 0.0 l/m 2.3 km/h (1 Bft) O 3.5 C 4.4 C
22.11.2003 18:00 4.0 C 95 % 1011.8 hPa 0.0 l/m 1.1 km/h (1 Bft) O 3.3 C 3.9 C
22.11.2003 19:00 3.7 C 99 % 1011.8 hPa 0.0 l/m 0.9 km/h (0 Bft) O 3.5 C 3.6 C
22.11.2003 20:00 3.5 C 100 % 1011.8 hPa 0.0 l/m 2.1 km/h (1 Bft) O 3.5 C 3.1 C
22.11.2003 21:00 3.2 C 99 % 1011.8 hPa 0.0 l/m 0.1 km/h (0 Bft) N 3.0 C 3.2 C
22.11.2003 22:00 3.0 C 100 % 1011.8 hPa 0.0 l/m 0.0 km/h (0 Bft) N 2.9 C 3.0 C
22.11.2003 23:00 2.7 C 100 % 1011.8 hPa 0.0 l/m 0.9 km/h (0 Bft) O 2.7 C 2.5 C
23.11.2003 00:00 2.3 C 99 % 1011.8 hPa 0.0 l/m 0.2 km/h (0 Bft) O 2.1 C 2.3 C
23.11.2003 01:00 2.5 C 100 % 1011.8 hPa 0.0 l/m 0.3 km/h (0 Bft) O 2.5 C 2.4 C
23.11.2003 02:00 2.5 C 100 % 1011.2 hPa 0.0 l/m 0.2 km/h (0 Bft) O 2.5 C 2.5 C
23.11.2003 03:00 2.4 C 100 % 1010.8 hPa 0.0 l/m 0.1 km/h (0 Bft) N 2.4 C 2.4 C
23.11.2003 04:00 1.9 C 100 % 1010.8 hPa 0.0 l/m 1.6 km/h (1 Bft) O 1.9 C 1.7 C
23.11.2003 05:00 1.6 C 100 % 1010.8 hPa 0.0 l/m 1.5 km/h (1 Bft) O 1.6 C 1.5 C
23.11.2003 06:00 1.7 C 100 % 1010.8 hPa 0.0 l/m 5.3 km/h (1 Bft) O 1.7 C 0.3 C
23.11.2003 07:00 1.7 C 100 % 1010.8 hPa 0.0 l/m 4.0 km/h (1 Bft) O-SO 1.7 C 0.8 C
23.11.2003 08:00 2.0 C 100 % 1010.8 hPa 0.0 l/m 1.4 km/h (1 Bft) O-SO 2.0 C 1.8 C
23.11.2003 09:00 2.5 C 100 % 1010.9 hPa 0.0 l/m 4.6 km/h (1 Bft) O-SO 2.5 C 1.3 C
23.11.2003 10:00 3.1 C 100 % 1010.8 hPa 0.0 l/m 1.0 km/h (0 Bft) O-SO 3.1 C 2.9 C
23.11.2003 11:00 4.1 C 100 % 1010.7 hPa 0.0 l/m 1.5 km/h (1 Bft) O-SO 4.1 C 3.8 C
23.11.2003 12:00 5.8 C 95 % 1009.7 hPa 0.0 l/m 3.7 km/h (1 Bft) SO 5.1 C 5.1 C
23.11.2003 13:00 8.0 C 79 % 1009.7 hPa 0.0 l/m 4.6 km/h (1 Bft) O-SO 4.6 C 7.5 C
23.11.2003 14:00 9.4 C 71 % 1009.7 hPa 0.0 l/m 3.6 km/h (1 Bft) O-SO 4.4 C 8.9 C
23.11.2003 15:00 9.3 C 71 % 1009.5 hPa 0.0 l/m 0.1 km/h (0 Bft) N 4.4 C 9.3 C
23.11.2003 16:00 7.7 C 80 % 1009.7 hPa 0.0 l/m 2.6 km/h (1 Bft) O-SO 4.4 C 7.3 C
23.11.2003 17:00 5.9 C 87 % 1009.5 hPa 0.0 l/m 1.8 km/h (1 Bft) O-SO 3.8 C 5.6 C
23.11.2003 18:00 4.9 C 93 % 1009.7 hPa 0.0 l/m 2.1 km/h (1 Bft) O-SO 3.8 C 4.5 C
23.11.2003 19:00 3.9 C 97 % 1009.7 hPa 0.0 l/m 0.0 km/h (0 Bft) N 3.5 C 3.9 C
23.11.2003 20:00 3.3 C 98 % 1009.6 hPa 0.0 l/m 1.2 km/h (1 Bft) O-SO 3.0 C 3.0 C
23.11.2003 21:00 3.3 C 100 % 1009.0 hPa 0.0 l/m 0.3 km/h (0 Bft) N 3.3 C 3.3 C
23.11.2003 22:00 3.1 C 100 % 1009.0 hPa 0.0 l/m 0.6 km/h (0 Bft) O-SO 3.1 C 3.0 C
23.11.2003 23:00 3.6 C 100 % 1009.3 hPa 0.0 l/m 2.3 km/h (1 Bft) O-SO 3.6 C 3.2 C
Min-Datum _ 18.11.03 17.11.03 23.11.03 - 17.11.03 - 17.11.03 22.11.03
_ Min-Zeit 00:12 14:40 15:04 - 07:09 - 14:40 06:57
Minimum _ 0.4 C 55 % 1008.7 hPa - 0.0 km/h (0 Bft) - -1.4 C -2.6 C
Max-Datum _ 23.11.03 17.11.03 18.11.03 17.11.03 17.11.03 - 17.11.03 23.11.03
_ Max-Zeit 15:13 00:00 05:42 00:24 00:45 - 00:33 15:13
Maximum _ 9.9 C 100 % 1030.5 hPa 0.4 l/m 55.3 km/h
NW (7 Bft)
- 8.1 C 9.9 C
Durchschnitt _ 4.2 C 91 % 1020.9 hPa #1.1 l/m 3.5 km/h (1 Bft) O-SO 2.8 C 3.6 C

Durchschnitt Minimum Temp.3.8 C
Durchschnitt Maximum Temp.4.7 C
© Kaiko 2003